createdAt,value
2023-01-09T00:01:28.462Z,101111.94
2023-01-09T00:03:56.553Z,101095.72
2023-01-09T00:06:24.626Z,101100.00
2023-01-09T00:08:52.605Z,101110.13
2023-01-09T00:11:20.733Z,101114.25
2023-01-09T00:13:50.280Z,101096.50
2023-01-09T00:16:18.545Z,101111.97
2023-01-09T00:18:46.595Z,101111.19
2023-01-09T00:21:15.025Z,101109.78
2023-01-09T00:23:42.942Z,101102.81
2023-01-09T00:26:13.875Z,101095.31
2023-01-09T00:28:42.203Z,101101.28
2023-01-09T00:31:12.647Z,101103.69
2023-01-09T00:33:43.568Z,101109.47
2023-01-09T00:36:12.166Z,101101.75
2023-01-09T00:38:41.256Z,101099.19
2023-01-09T00:41:15.019Z,101096.72
2023-01-09T00:43:46.339Z,101095.88
2023-01-09T00:46:17.045Z,101087.25
2023-01-09T00:48:47.411Z,101094.88
2023-01-09T00:51:16.190Z,101091.38
2023-01-09T00:53:44.905Z,101074.25
2023-01-09T00:56:16.230Z,101094.50
2023-01-09T00:58:44.561Z,101075.84
2023-01-09T01:01:13.352Z,101092.84
2023-01-09T01:03:42.736Z,101089.44
2023-01-09T01:06:28.228Z,101084.38
2023-01-09T01:08:56.960Z,101078.25
2023-01-09T01:11:25.235Z,101074.09
2023-01-09T01:13:53.307Z,101077.38
2023-01-09T01:16:21.285Z,101074.84
2023-01-09T01:18:50.645Z,101070.59
2023-01-09T01:21:19.338Z,101067.28
2023-01-09T01:23:47.293Z,101051.09
2023-01-09T01:26:17.193Z,101057.78
2023-01-09T01:28:45.819Z,101062.88
2023-01-09T01:31:18.853Z,101044.97
2023-01-09T01:33:47.184Z,101040.63
2023-01-09T01:36:18.016Z,101037.94
2023-01-09T01:38:47.448Z,101044.72
2023-01-09T01:41:29.481Z,101044.72
2023-01-09T01:44:00.256Z,101038.91
2023-01-09T01:46:29.070Z,101040.50
2023-01-09T01:49:01.923Z,101025.34
2023-01-09T01:51:34.649Z,101022.88
2023-01-09T01:54:06.776Z,101018.53
2023-01-09T01:56:39.072Z,101026.16
2023-01-09T01:59:12.752Z,101024.50
2023-01-09T02:01:44.881Z,101022.81
2023-01-09T02:04:13.928Z,101016.81
2023-01-09T02:06:44.669Z,101009.22
2023-01-09T02:09:15.287Z,101013.38
2023-01-09T02:11:45.999Z,101009.16
2023-01-09T02:14:14.506Z,100998.13
2023-01-09T02:16:53.054Z,101002.25
2023-01-09T02:19:43.122Z,101003.94
2023-01-09T02:22:26.276Z,100990.38
2023-01-09T02:25:13.724Z,100988.66
2023-01-09T02:28:16.777Z,100987.81
2023-01-09T02:30:51.335Z,100995.66
2023-01-09T02:33:32.936Z,100901.72
2023-01-09T02:36:12.018Z,100981.13
2023-01-09T02:38:49.829Z,100973.56
2023-01-09T02:41:22.991Z,100969.34
2023-01-09T02:44:03.663Z,100964.41
2023-01-09T02:46:33.008Z,100966.06
2023-01-09T02:49:00.970Z,100969.63
2023-01-09T02:51:38.100Z,100967.81
2023-01-09T02:54:21.826Z,100960.16
2023-01-09T02:57:12.921Z,100964.41
2023-01-09T02:59:57.039Z,100967.91
2023-01-09T03:02:40.617Z,100962.00
2023-01-09T03:05:19.110Z,100944.25
2023-01-09T03:07:51.103Z,100951.09
2023-01-09T03:10:24.519Z,100951.91
2023-01-09T03:12:54.874Z,100968.13
2023-01-09T03:15:27.005Z,100959.69
2023-01-09T03:17:57.054Z,100960.44
2023-01-09T03:20:27.895Z,100956.16
2023-01-09T03:22:57.310Z,100963.88
2023-01-09T03:25:26.768Z,100971.50
2023-01-09T03:27:58.346Z,100967.22
2023-01-09T03:30:27.626Z,100972.53
2023-01-09T03:32:57.178Z,100972.41
2023-01-09T03:35:26.151Z,100969.81
2023-01-09T03:37:54.091Z,100961.63
2023-01-09T03:40:22.929Z,100966.88
2023-01-09T03:42:50.853Z,100958.63
2023-01-09T03:45:20.593Z,100961.06
2023-01-09T03:47:48.507Z,100953.41
2023-01-09T03:50:18.157Z,100976.97
2023-01-09T03:52:46.086Z,100979.47
2023-01-09T03:55:15.596Z,100976.81
2023-01-09T03:57:43.780Z,100978.44
2023-01-09T04:00:13.014Z,100966.44
2023-01-09T04:02:41.197Z,100973.94
2023-01-09T04:05:09.977Z,100972.19
2023-01-09T04:07:39.485Z,100975.50
2023-01-09T04:10:08.000Z,100979.72
2023-01-09T04:12:35.940Z,100981.41
2023-01-09T04:15:03.931Z,100971.34
2023-01-09T04:17:31.910Z,100971.31
2023-01-09T04:20:00.275Z,100981.28
2023-01-09T04:22:28.242Z,100976.16
2023-01-09T04:24:57.536Z,100984.63
2023-01-09T04:27:25.458Z,100981.22
2023-01-09T04:29:53.480Z,100976.84
2023-01-09T04:32:21.442Z,100992.06
2023-01-09T04:34:49.391Z,100989.28
2023-01-09T04:37:17.328Z,100993.59
2023-01-09T04:39:46.044Z,100996.13
2023-01-09T04:42:15.377Z,100992.75
2023-01-09T04:44:43.313Z,100999.69
2023-01-09T04:47:13.632Z,100999.69
2023-01-09T04:49:41.580Z,100997.03
2023-01-09T04:52:09.550Z,101005.50
2023-01-09T04:54:39.605Z,101004.66
2023-01-09T04:57:08.027Z,101010.50
2023-01-09T04:59:37.429Z,101003.75
2023-01-09T05:02:05.501Z,101007.88
2023-01-09T05:04:33.836Z,101013.94
2023-01-09T05:07:02.196Z,101013.16
2023-01-09T05:09:30.308Z,101014.00
2023-01-09T05:11:58.309Z,100981.72
2023-01-09T05:14:26.319Z,101002.91
2023-01-09T05:16:55.668Z,101008.97
2023-01-09T05:19:23.775Z,101002.78
2023-01-09T05:21:51.720Z,100995.78
2023-01-09T05:24:19.794Z,100994.13
2023-01-09T05:26:47.751Z,100992.47
2023-01-09T05:29:15.703Z,100998.28
2023-01-09T05:31:43.656Z,100997.41
2023-01-09T05:34:13.061Z,100988.88
2023-01-09T05:36:41.039Z,100992.28
2023-01-09T05:39:08.991Z,100993.16
2023-01-09T05:41:36.950Z,100989.78
2023-01-09T05:44:05.747Z,100988.03
2023-01-09T05:46:34.019Z,100983.66
2023-01-09T05:49:01.969Z,100986.13
2023-01-09T05:51:32.155Z,100977.88
2023-01-09T05:54:00.389Z,100988.09
2023-01-09T05:56:30.083Z,100981.13
2023-01-09T05:58:58.021Z,100993.84
2023-01-09T06:01:25.960Z,100987.84
2023-01-09T06:03:53.939Z,100996.38
2023-01-09T06:06:22.852Z,100974.34
2023-01-09T06:08:52.179Z,100981.13
2023-01-09T06:11:20.130Z,100969.13
2023-01-09T06:13:48.072Z,100979.28
2023-01-09T06:16:16.060Z,100974.91
2023-01-09T06:18:44.069Z,100968.91
2023-01-09T06:21:11.991Z,100975.75
2023-01-09T06:23:39.938Z,100974.03
2023-01-09T06:26:09.317Z,100969.88
2023-01-09T06:28:37.288Z,100969.75
2023-01-09T06:31:05.462Z,100958.84
2023-01-09T06:33:33.678Z,100960.59
2023-01-09T06:36:01.593Z,100969.75
2023-01-09T06:38:29.531Z,100974.91
2023-01-09T06:40:57.509Z,100974.84
2023-01-09T06:43:26.838Z,100983.41
2023-01-09T06:45:54.909Z,100970.97
2023-01-09T06:48:25.070Z,100958.38
2023-01-09T06:50:53.171Z,100952.38
2023-01-09T06:53:21.838Z,100956.41
2023-01-09T06:55:49.911Z,100958.00
2023-01-09T06:58:18.235Z,100963.31
2023-01-09T07:00:49.400Z,100966.53
2023-01-09T07:03:19.963Z,100971.78
2023-01-09T07:05:48.224Z,100978.66
2023-01-09T07:08:16.197Z,100963.28
2023-01-09T07:10:44.611Z,100977.69
2023-01-09T07:13:12.631Z,100973.53
2023-01-09T07:15:40.640Z,100972.69
2023-01-09T07:18:09.990Z,100964.22
2023-01-09T07:20:39.785Z,100962.66
2023-01-09T07:23:07.713Z,100961.78
2023-01-09T07:25:35.612Z,100954.94
2023-01-09T07:28:03.561Z,100962.31
2023-01-09T07:30:33.472Z,100963.81
2023-01-09T07:33:03.804Z,100953.53
2023-01-09T07:35:33.490Z,100947.53
2023-01-09T07:38:01.461Z,100946.69
2023-01-09T07:40:29.528Z,100934.34
2023-01-09T07:42:57.730Z,100943.25
2023-01-09T07:45:25.684Z,100937.75
2023-01-09T07:47:53.633Z,100947.75
2023-01-09T07:50:21.820Z,100943.28
2023-01-09T07:52:51.155Z,100945.69
2023-01-09T07:55:19.107Z,100940.09
2023-01-09T07:57:50.086Z,100922.78
2023-01-09T08:00:18.859Z,100921.81
2023-01-09T08:02:46.882Z,100905.44
2023-01-09T08:05:16.003Z,100924.94
2023-01-09T08:07:44.303Z,100915.72
2023-01-09T08:10:14.380Z,100921.53
2023-01-09T08:12:44.560Z,100923.13
2023-01-09T08:15:12.810Z,100912.94
2023-01-09T08:17:44.313Z,100892.53
2023-01-09T08:20:13.642Z,100916.13
2023-01-09T08:22:43.309Z,100917.13
2023-01-09T08:25:12.676Z,100933.47
2023-01-09T08:27:42.529Z,100935.19
2023-01-09T08:30:12.641Z,100927.31
2023-01-09T08:32:41.289Z,100922.00
2023-01-09T08:35:09.963Z,100926.84
2023-01-09T08:37:37.898Z,100931.78
2023-01-09T08:40:06.535Z,100925.75
2023-01-09T08:42:52.127Z,100933.38
2023-01-09T08:45:38.658Z,100919.63
2023-01-09T08:48:07.398Z,100920.28
2023-01-09T08:50:35.415Z,100921.00
2023-01-09T08:53:03.535Z,100919.78
2023-01-09T08:55:31.461Z,100914.84
2023-01-09T08:57:59.392Z,100893.44
2023-01-09T09:00:29.020Z,100892.78
2023-01-09T09:02:59.028Z,100884.63
2023-01-09T09:05:28.687Z,100884.97
2023-01-09T09:07:56.934Z,100886.94
2023-01-09T09:10:27.412Z,100877.03
2023-01-09T09:12:57.391Z,100864.91
2023-01-09T09:15:26.734Z,100859.97
2023-01-09T09:17:58.044Z,100854.47
2023-01-09T09:20:28.257Z,100853.03
2023-01-09T09:22:56.224Z,100851.56
2023-01-09T09:25:24.362Z,100848.31
2023-01-09T09:27:52.483Z,100852.38
2023-01-09T09:30:21.513Z,100847.13
2023-01-09T09:32:49.952Z,100828.50
2023-01-09T09:35:21.075Z,100844.78
2023-01-09T09:37:55.405Z,100846.88
2023-01-09T09:40:29.006Z,100850.81
2023-01-09T09:43:39.380Z,100847.41
2023-01-09T09:46:16.284Z,100848.78
2023-01-09T09:48:49.838Z,100847.69
2023-01-09T09:51:44.106Z,100851.63
2023-01-09T09:54:15.967Z,100851.41
2023-01-09T09:56:50.893Z,100843.91
2023-01-09T09:59:21.824Z,100828.09
2023-01-09T10:01:56.514Z,100843.91
2023-01-09T10:04:26.917Z,100833.13
2023-01-09T10:06:59.495Z,100826.91
2023-01-09T10:09:41.030Z,100827.06
2023-01-09T10:12:18.507Z,100823.03
2023-01-09T10:14:46.640Z,100810.50
2023-01-09T10:17:38.733Z,100830.00
2023-01-09T10:20:38.810Z,100833.47
2023-01-09T10:23:24.760Z,100834.13
2023-01-09T10:25:58.611Z,100827.94
2023-01-09T10:28:47.076Z,100824.34
2023-01-09T10:31:22.893Z,100814.44
2023-01-09T10:34:01.583Z,100806.09
2023-01-09T10:36:45.080Z,100802.78
2023-01-09T10:39:21.754Z,100811.13
2023-01-09T10:41:57.379Z,100806.56
2023-01-09T10:44:34.786Z,100802.28
2023-01-09T10:47:05.122Z,100795.50
2023-01-09T10:49:33.094Z,100780.78
2023-01-09T10:52:15.450Z,100781.50
2023-01-09T10:54:52.728Z,100771.00
2023-01-09T10:57:39.491Z,100764.44
2023-01-09T11:00:16.991Z,100755.66
2023-01-09T11:02:45.012Z,100762.41
2023-01-09T11:05:16.854Z,100762.94
2023-01-09T11:07:47.097Z,100765.44
2023-01-09T11:10:19.819Z,100766.44
2023-01-09T11:12:48.279Z,100779.91
2023-01-09T11:15:29.247Z,100773.75
2023-01-09T11:18:20.752Z,100756.63
2023-01-09T11:20:48.971Z,100757.31
2023-01-09T11:23:27.003Z,100766.34
2023-01-09T11:25:59.081Z,100758.44
2023-01-09T11:28:27.554Z,100749.47
2023-01-09T11:30:59.800Z,100754.81
2023-01-09T11:33:30.222Z,100747.69
2023-01-09T11:36:04.282Z,100734.88
2023-01-09T11:38:33.368Z,100728.19
2023-01-09T11:41:06.736Z,100732.69
2023-01-09T11:43:37.792Z,100730.72
2023-01-09T11:46:07.761Z,100721.41
2023-01-09T11:48:41.532Z,100698.72
2023-01-09T11:51:21.456Z,100689.41
2023-01-09T11:54:00.643Z,100688.81
2023-01-09T11:56:31.462Z,100688.34
2023-01-09T11:59:00.747Z,100687.34
2023-01-09T12:01:48.441Z,100692.97
2023-01-09T12:04:28.596Z,100691.72
2023-01-09T12:07:23.508Z,100684.75
2023-01-09T12:10:01.454Z,100688.53
2023-01-09T12:12:39.555Z,100681.25
2023-01-09T12:15:24.761Z,100676.09
2023-01-09T12:18:12.039Z,100657.13
2023-01-09T12:20:56.420Z,100662.34
2023-01-09T12:23:44.850Z,100652.63
2023-01-09T12:26:19.081Z,100660.16
2023-01-09T12:29:03.948Z,100657.06
2023-01-09T12:31:49.312Z,100661.75
2023-01-09T12:34:37.235Z,100652.78
2023-01-09T12:37:23.189Z,100647.00
2023-01-09T12:40:04.134Z,100647.75
2023-01-09T12:42:49.929Z,100642.97
2023-01-09T12:45:35.895Z,100651.22
2023-01-09T12:48:13.542Z,100651.34
2023-01-09T12:51:04.499Z,100650.91
2023-01-09T12:53:36.605Z,100633.16
2023-01-09T12:56:08.820Z,100617.31
2023-01-09T12:58:43.275Z,100622.53
2023-01-09T13:01:19.070Z,100620.72
2023-01-09T13:03:52.751Z,100612.94
2023-01-09T13:06:24.045Z,100614.72
2023-01-09T13:08:59.470Z,100613.47
2023-01-09T13:11:34.014Z,100599.34
2023-01-09T13:14:06.780Z,100596.56
2023-01-09T13:16:41.847Z,100602.56
2023-01-09T13:19:17.673Z,100598.94
2023-01-09T13:21:46.586Z,100596.09
2023-01-09T13:24:19.652Z,100580.88
2023-01-09T13:26:51.354Z,100587.91
2023-01-09T13:29:23.481Z,100576.16
2023-01-09T13:32:23.117Z,100588.06
2023-01-09T13:34:54.335Z,100588.09
2023-01-09T13:37:24.913Z,100594.50
2023-01-09T13:39:58.124Z,100601.66
2023-01-09T13:42:44.286Z,100596.69
2023-01-09T13:45:22.174Z,100602.84
2023-01-09T13:48:23.916Z,100599.47
2023-01-09T13:50:55.918Z,100590.94
2023-01-09T13:53:53.749Z,100597.78
2023-01-09T13:56:23.911Z,100595.94
2023-01-09T13:59:00.904Z,100583.34
2023-01-09T14:01:43.579Z,100587.44
2023-01-09T14:04:44.481Z,100595.59
2023-01-09T14:07:26.119Z,100584.47
2023-01-09T14:09:58.420Z,100569.94
2023-01-09T14:12:27.722Z,100574.44
2023-01-09T14:14:59.761Z,100593.19
2023-01-09T14:17:33.551Z,100578.94
2023-01-09T14:20:04.165Z,100579.19
2023-01-09T14:22:45.494Z,100568.97
2023-01-09T14:25:26.747Z,100563.53
2023-01-09T14:28:23.265Z,100570.34
2023-01-09T14:31:08.752Z,100580.81
2023-01-09T14:33:36.899Z,100579.19
2023-01-09T14:36:29.397Z,100587.09
2023-01-09T14:39:03.831Z,100573.00
2023-01-09T14:41:54.877Z,100572.13
2023-01-09T14:44:30.179Z,100552.03
2023-01-09T14:47:04.386Z,100543.91
2023-01-09T14:49:36.919Z,100538.63
2023-01-09T14:52:11.458Z,100536.44
2023-01-09T14:54:44.457Z,100517.16
2023-01-09T14:57:26.591Z,100518.97
2023-01-09T15:00:02.394Z,100525.66
2023-01-09T15:02:33.849Z,100526.72
2023-01-09T15:05:06.099Z,100530.72
2023-01-09T15:07:41.087Z,100520.16
2023-01-09T15:10:17.858Z,100525.78
2023-01-09T15:12:47.363Z,100523.22
2023-01-09T15:15:16.774Z,100521.84
2023-01-09T15:17:47.560Z,100525.66
2023-01-09T15:20:22.233Z,100512.25
2023-01-09T15:22:52.780Z,100498.84
2023-01-09T15:25:37.728Z,100504.91
2023-01-09T15:28:32.180Z,100495.44
2023-01-09T15:31:08.137Z,100490.66
2023-01-09T15:33:39.653Z,100485.00
2023-01-09T15:36:16.431Z,100491.09
2023-01-09T15:38:45.208Z,100487.16
2023-01-09T15:41:39.742Z,100479.94
2023-01-09T15:44:13.300Z,100477.63
2023-01-09T15:46:41.703Z,100482.84
2023-01-09T15:49:12.814Z,100473.47
2023-01-09T15:51:41.876Z,100489.75
2023-01-09T15:54:14.703Z,100494.50
2023-01-09T15:56:45.893Z,100496.97
2023-01-09T15:59:27.103Z,100493.63
2023-01-09T16:02:14.387Z,100500.69
2023-01-09T16:04:42.915Z,100498.34
2023-01-09T16:07:16.466Z,100495.78
2023-01-09T16:09:47.595Z,100496.28
2023-01-09T16:12:23.033Z,100488.44
2023-01-09T16:14:53.734Z,100473.59
2023-01-09T16:17:26.596Z,100467.06
2023-01-09T16:19:57.955Z,100463.78
2023-01-09T16:22:29.069Z,100452.44
2023-01-09T16:24:58.660Z,100456.22
2023-01-09T16:27:30.600Z,100453.53
2023-01-09T16:29:59.863Z,100447.47
2023-01-09T16:32:30.794Z,100437.09
2023-01-09T16:35:00.831Z,100410.53
2023-01-09T16:37:29.196Z,100422.50
2023-01-09T16:40:24.216Z,100415.91
2023-01-09T16:43:08.542Z,100419.59
2023-01-09T16:45:38.637Z,100401.91
2023-01-09T16:48:13.751Z,100401.03
2023-01-09T16:50:42.671Z,100372.59
2023-01-09T16:53:15.958Z,100407.44
2023-01-09T16:55:44.143Z,100418.28
2023-01-09T16:58:18.401Z,100408.94
2023-01-09T17:00:48.026Z,100419.47
2023-01-09T17:03:17.134Z,100423.88
2023-01-09T17:05:45.211Z,100426.75
2023-01-09T17:08:22.315Z,100415.41
2023-01-09T17:10:50.450Z,100421.09
2023-01-09T17:13:19.784Z,100431.06
2023-01-09T17:15:48.234Z,100425.84
2023-01-09T17:18:17.175Z,100423.34
2023-01-09T17:20:47.076Z,100422.91
2023-01-09T17:23:15.981Z,100415.78
2023-01-09T17:26:02.645Z,100403.41
2023-01-09T17:28:36.196Z,100407.91
2023-01-09T17:31:09.280Z,100402.16
2023-01-09T17:33:38.352Z,100411.00
2023-01-09T17:36:12.323Z,100402.75
2023-01-09T17:38:40.255Z,100407.81
2023-01-09T17:41:09.832Z,100396.84
2023-01-09T17:43:40.890Z,100405.94
2023-01-09T17:46:16.943Z,100421.34
2023-01-09T17:48:45.033Z,100401.09
2023-01-09T17:51:12.985Z,100409.97
2023-01-09T17:53:40.924Z,100419.09
2023-01-09T17:56:14.876Z,100415.72
2023-01-09T17:58:45.792Z,100396.53
2023-01-09T18:01:15.934Z,100415.63
2023-01-09T18:03:44.402Z,100406.03
2023-01-09T18:06:13.873Z,100387.72
2023-01-09T18:08:42.231Z,100400.06
2023-01-09T18:11:14.145Z,100409.41
2023-01-09T18:13:42.327Z,100397.91
2023-01-09T18:16:13.352Z,100390.66
2023-01-09T18:18:41.532Z,100392.78
2023-01-09T18:21:10.546Z,100379.91
2023-01-09T18:23:38.552Z,100371.19
2023-01-09T18:26:07.958Z,100367.31
2023-01-09T18:28:37.428Z,100362.13
2023-01-09T18:31:05.813Z,100353.28
2023-01-09T18:33:35.166Z,100351.59
2023-01-09T18:36:08.218Z,100345.88
2023-01-09T18:38:36.261Z,100353.19
2023-01-09T18:41:05.746Z,100348.75
2023-01-09T18:43:33.702Z,100341.88
2023-01-09T18:46:06.874Z,100328.41
2023-01-09T18:48:36.319Z,100320.75
2023-01-09T18:51:06.025Z,100309.78
2023-01-09T18:53:34.025Z,100314.38
2023-01-09T18:56:04.819Z,100299.06
2023-01-09T18:58:33.988Z,100303.63
2023-01-09T19:01:02.286Z,100317.03
2023-01-09T19:03:31.663Z,100307.72
2023-01-09T19:06:02.406Z,100295.91
2023-01-09T19:08:31.205Z,100297.84
2023-01-09T19:10:59.517Z,100286.91
2023-01-09T19:13:30.903Z,100288.59
2023-01-09T19:16:00.048Z,100271.69
2023-01-09T19:18:29.497Z,100278.44
2023-01-09T19:20:57.556Z,100277.66
2023-01-09T19:23:26.894Z,100277.94
2023-01-09T19:25:55.520Z,100277.50
2023-01-09T19:28:23.485Z,100272.16
2023-01-09T19:30:56.825Z,100281.78
2023-01-09T19:33:25.475Z,100254.75
2023-01-09T19:35:54.263Z,100276.59
2023-01-09T19:38:23.764Z,100269.91
2023-01-09T19:40:53.090Z,100263.28
2023-01-09T19:43:26.787Z,100263.88
2023-01-09T19:45:55.940Z,100255.31
2023-01-09T19:48:27.146Z,100255.59
2023-01-09T19:51:02.430Z,100245.94
2023-01-09T19:53:31.643Z,100236.22
2023-01-09T19:56:15.190Z,100233.34
2023-01-09T19:58:44.317Z,100228.22
2023-01-09T20:01:14.286Z,100237.31
2023-01-09T20:03:42.982Z,100222.34
2023-01-09T20:06:14.436Z,100223.16
2023-01-09T20:08:42.791Z,100227.69
2023-01-09T20:11:10.779Z,100214.91
2023-01-09T20:13:40.127Z,100207.22
2023-01-09T20:16:09.145Z,100214.75
2023-01-09T20:18:37.393Z,100195.38
2023-01-09T20:21:05.751Z,100208.31
2023-01-09T20:23:36.157Z,100203.09
2023-01-09T20:26:04.216Z,100218.19
2023-01-09T20:28:32.174Z,100201.31
2023-01-09T20:31:03.095Z,100211.56
2023-01-09T20:33:31.024Z,100209.72
2023-01-09T20:36:02.102Z,100211.31
2023-01-09T20:38:30.165Z,100211.41
2023-01-09T20:40:58.089Z,100202.38
2023-01-09T20:43:27.877Z,100189.69
2023-01-09T20:45:55.934Z,100193.72
2023-01-09T20:48:25.338Z,100192.78
2023-01-09T20:50:53.269Z,100190.94
2023-01-09T20:53:21.214Z,100182.78
2023-01-09T20:55:49.137Z,100182.53
2023-01-09T20:58:17.071Z,100189.41
2023-01-09T21:00:45.041Z,100191.94
2023-01-09T21:03:16.733Z,100197.97
2023-01-09T21:05:46.047Z,100190.28
2023-01-09T21:08:14.161Z,100191.16
2023-01-09T21:10:42.083Z,100187.19
2023-01-09T21:13:10.031Z,100189.91
2023-01-09T21:15:39.026Z,100199.31
2023-01-09T21:18:07.167Z,100191.84
2023-01-09T21:20:35.065Z,100192.09
2023-01-09T21:23:04.393Z,100188.00
2023-01-09T21:25:32.348Z,100181.28
2023-01-09T21:28:00.369Z,100185.44
2023-01-09T21:30:28.295Z,100187.19
2023-01-09T21:32:56.224Z,100191.78
2023-01-09T21:35:24.172Z,100180.38
2023-01-09T21:37:52.078Z,100175.81
2023-01-09T21:40:21.497Z,100186.16
2023-01-09T21:43:06.783Z,100172.53
2023-01-09T21:45:52.406Z,100171.84
2023-01-09T21:48:20.380Z,100166.34
2023-01-09T21:50:48.295Z,100171.09
2023-01-09T21:53:16.379Z,100161.84
2023-01-09T21:55:45.699Z,100161.28
2023-01-09T21:58:13.623Z,100157.50
2023-01-09T22:00:41.620Z,100173.28
2023-01-09T22:03:15.651Z,100170.19
2023-01-09T22:05:43.568Z,100150.28
2023-01-09T22:08:11.483Z,100148.78
2023-01-09T22:10:39.393Z,100122.50
2023-01-09T22:13:16.277Z,100145.81
2023-01-09T22:15:44.955Z,100140.94
2023-01-09T22:18:12.861Z,100131.56
2023-01-09T22:20:40.841Z,100119.88
2023-01-09T22:23:08.767Z,100114.69
2023-01-09T22:25:37.808Z,100108.75
2023-01-09T22:28:06.664Z,100103.06
2023-01-09T22:30:35.964Z,100095.16
2023-01-09T22:33:05.486Z,100100.19
2023-01-09T22:35:33.396Z,100090.41
2023-01-09T22:38:01.771Z,100077.81
2023-01-09T22:40:29.715Z,100084.88
2023-01-09T22:42:57.775Z,100085.81
2023-01-09T22:45:26.250Z,100084.34
2023-01-09T22:47:56.479Z,100079.75
2023-01-09T22:50:24.509Z,100072.56
2023-01-09T22:52:52.589Z,100080.53
2023-01-09T22:55:20.541Z,100067.22
2023-01-09T22:57:48.481Z,100066.41
2023-01-09T23:00:17.186Z,100067.41
2023-01-09T23:02:45.212Z,100061.72
2023-01-09T23:05:14.593Z,100063.44
2023-01-09T23:07:42.540Z,100050.13
2023-01-09T23:10:11.583Z,100062.47
2023-01-09T23:12:39.507Z,100063.84
2023-01-09T23:15:09.198Z,100052.84
2023-01-09T23:17:37.112Z,100047.13
2023-01-09T23:20:05.900Z,100056.34
2023-01-09T23:22:35.186Z,100053.97
2023-01-09T23:25:03.144Z,100046.09
2023-01-09T23:27:31.106Z,100046.53
2023-01-09T23:29:59.039Z,100042.88
2023-01-09T23:32:26.954Z,100046.53
2023-01-09T23:34:55.501Z,100043.00
2023-01-09T23:37:23.432Z,100041.88
2023-01-09T23:39:52.783Z,100037.25
2023-01-09T23:42:38.105Z,100039.94
2023-01-09T23:45:06.751Z,100029.09
2023-01-09T23:47:34.681Z,100017.66
2023-01-09T23:50:03.920Z,100026.53
2023-01-09T23:52:31.888Z,100024.94
2023-01-09T23:55:01.188Z,100023.53
2023-01-09T23:57:29.094Z,100035.56
2023-01-09T23:59:57.048Z,100006.72
